Time;durP1;ratioP1;P1;durP2;ratioP2;P2;SDS_P1;SDS_P2;PMS_P1;PMS_P2;Temp;Humidity;BMP_temperature;BMP_pressure;BME280_temperature;BME280_humidity;BME280_pressure;Samples;Min_cycle;Max_cycle;Signal;HPM_P1;HPM_P2
2021/01/12 00:01:38;;;;;;;2.60;2.30;;;;;;;;;;5054688;27;92884;-60
2021/01/12 00:04:03;;;;;;;2.90;2.47;;;;;;;;;;5054880;27;93247;-59
2021/01/12 00:06:28;;;;;;;2.35;2.05;;;;;;;;;;5050636;27;95568;-60
2021/01/12 00:08:53;;;;;;;3.45;2.45;;;;;;;;;;5056750;27;93786;-59
2021/01/12 00:11:22;;;;;;;2.65;2.00;;;;;;;;;;5055278;27;92649;-59
2021/01/12 00:13:47;;;;;;;2.72;2.00;;;;;;;;;;5055261;27;92659;-59
2021/01/12 00:16:12;;;;;;;2.70;2.20;;;;;;;;;;5054725;27;92435;-59
2021/01/12 00:18:38;;;;;;;2.80;2.08;;;;;;;;;;5062240;27;92440;-60
2021/01/12 00:21:03;;;;;;;2.28;1.90;;;;;;;;;;5057268;27;93003;-60
2021/01/12 00:23:28;;;;;;;2.40;2.10;;;;;;;;;;5054863;27;91581;-59
2021/01/12 00:25:54;;;;;;;2.33;2.10;;;;;;;;;;5056132;27;92665;-59
2021/01/12 00:28:19;;;;;;;2.17;1.95;;;;;;;;;;5053961;27;92366;-59
2021/01/12 00:30:44;;;;;;;1.80;1.63;;;;;;;;;;5052119;27;95263;-59
2021/01/12 00:33:10;;;;;;;2.50;1.63;;;;;;;;;;5054856;27;93799;-59
2021/01/12 00:35:35;;;;;;;1.83;1.60;;;;;;;;;;5056346;27;94268;-59
2021/01/12 00:38:00;;;;;;;2.03;1.83;;;;;;;;;;5054779;27;92707;-59
2021/01/12 00:40:26;;;;;;;1.80;1.70;;;;;;;;;;5052822;27;92294;-60
2021/01/12 00:42:51;;;;;;;1.77;1.65;;;;;;;;;;5056077;27;92566;-59
2021/01/12 00:45:16;;;;;;;2.00;1.70;;;;;;;;;;5055808;27;92952;-60
2021/01/12 00:47:43;;;;;;;1.47;1.37;;;;;;;;;;5054371;27;91610;-60
2021/01/12 00:50:08;;;;;;;1.70;1.60;;;;;;;;;;5057995;27;92245;-61
2021/01/12 00:52:33;;;;;;;1.50;1.40;;;;;;;;;;5054669;27;93064;-61
2021/01/12 00:54:59;;;;;;;2.25;1.35;;;;;;;;;;5050509;27;94799;-61
2021/01/12 00:57:24;;;;;;;1.67;1.40;;;;;;;;;;5053734;27;93870;-61
2021/01/12 00:59:49;;;;;;;1.40;1.30;;;;;;;;;;5053410;27;93127;-60
2021/01/12 01:02:14;;;;;;;1.45;1.35;;;;;;;;;;5055203;27;92863;-60
2021/01/12 01:04:40;;;;;;;1.33;1.23;;;;;;;;;;5055018;27;92988;-58
2021/01/12 01:07:05;;;;;;;1.42;1.30;;;;;;;;;;5052367;27;92493;-59
2021/01/12 01:09:30;;;;;;;2.22;1.30;;;;;;;;;;5050796;27;92859;-58
2021/01/12 01:11:56;;;;;;;1.40;1.30;;;;;;;;;;5055798;27;92392;-58
2021/01/12 01:14:22;;;;;;;1.50;1.30;;;;;;;;;;5048727;27;92692;-58
2021/01/12 01:16:48;;;;;;;1.48;1.38;;;;;;;;;;5055563;27;92452;-58
2021/01/12 01:19:13;;;;;;;1.48;1.38;;;;;;;;;;5036900;27;98541;-58
2021/01/12 01:21:38;;;;;;;1.48;1.20;;;;;;;;;;5052029;27;94090;-59
2021/01/12 01:24:04;;;;;;;1.40;1.30;;;;;;;;;;5036102;27;94935;-58
2021/01/12 01:26:29;;;;;;;1.38;1.20;;;;;;;;;;5052142;27;93854;-59
2021/01/12 01:28:55;;;;;;;1.38;1.27;;;;;;;;;;5054168;27;92512;-58
2021/01/12 01:31:20;;;;;;;1.33;1.23;;;;;;;;;;5052921;27;93701;-59
2021/01/12 01:33:46;;;;;;;1.65;1.20;;;;;;;;;;5053712;27;92815;-59
2021/01/12 01:36:11;;;;;;;1.23;1.10;;;;;;;;;;5053264;27;91445;-59
2021/01/12 01:38:37;;;;;;;1.30;1.20;;;;;;;;;;5054601;27;92184;-59
2021/01/12 01:41:03;;;;;;;1.73;1.40;;;;;;;;;;5054750;27;92226;-59
2021/01/12 01:43:29;;;;;;;1.17;1.08;;;;;;;;;;5057424;27;95546;-60
2021/01/12 01:45:54;;;;;;;1.37;1.27;;;;;;;;;;5051025;27;93893;-59
2021/01/12 01:48:20;;;;;;;1.30;1.20;;;;;;;;;;5053884;27;92950;-60
2021/01/12 01:50:45;;;;;;;1.38;1.10;;;;;;;;;;5052962;27;92239;-59
2021/01/12 01:53:10;;;;;;;1.25;1.15;;;;;;;;;;5054329;27;92843;-60
2021/01/12 01:55:36;;;;;;;1.20;1.10;;;;;;;;;;5026585;27;92758;-59
2021/01/12 01:58:01;;;;;;;1.20;1.08;;;;;;;;;;5049705;27;95255;-58
2021/01/12 02:00:27;;;;;;;1.00;1.00;;;;;;;;;;5052253;27;91789;-60
2021/01/12 02:02:52;;;;;;;1.40;1.20;;;;;;;;;;5054339;27;92350;-58
2021/01/12 02:05:17;;;;;;;1.43;1.10;;;;;;;;;;5054273;27;92493;-59
2021/01/12 02:07:43;;;;;;;1.20;1.10;;;;;;;;;;5065734;27;95622;-59
2021/01/12 02:10:10;;;;;;;1.30;0.95;;;;;;;;;;5040086;27;95229;-59
2021/01/12 02:12:37;;;;;;;1.27;1.00;;;;;;;;;;5054023;27;92647;-59
2021/01/12 02:15:03;;;;;;;1.20;1.10;;;;;;;;;;5037059;27;92311;-60
2021/01/12 02:17:29;;;;;;;0.80;0.80;;;;;;;;;;5052673;27;92212;-60
2021/01/12 02:19:54;;;;;;;0.90;0.90;;;;;;;;;;5053519;27;92316;-60
2021/01/12 02:22:20;;;;;;;0.98;0.98;;;;;;;;;;5053378;27;95215;-59
2021/01/12 02:24:46;;;;;;;0.90;0.90;;;;;;;;;;5039702;27;94163;-60
2021/01/12 02:27:11;;;;;;;0.80;0.80;;;;;;;;;;5049450;27;92364;-60
2021/01/12 02:29:36;;;;;;;1.15;1.05;;;;;;;;;;5058620;27;93079;-60
2021/01/12 02:32:01;;;;;;;0.70;0.70;;;;;;;;;;5051940;27;96524;-58
2021/01/12 02:34:27;;;;;;;0.70;0.70;;;;;;;;;;5061257;27;94089;-59
2021/01/12 02:36:52;;;;;;;0.80;0.80;;;;;;;;;;5052377;27;92738;-59
2021/01/12 02:39:17;;;;;;;0.80;0.80;;;;;;;;;;5052481;27;93147;-59
2021/01/12 02:41:43;;;;;;;0.73;0.70;;;;;;;;;;5068778;27;94668;-60
2021/01/12 02:44:21;;;;;;;1.52;0.85;;;;;;;;;;5053576;27;92429;-59
2021/01/12 02:46:46;;;;;;;0.85;0.85;;;;;;;;;;5053532;27;92942;-60
2021/01/12 02:49:11;;;;;;;1.10;0.80;;;;;;;;;;5054059;27;92683;-60
2021/01/12 02:51:37;;;;;;;1.10;1.00;;;;;;;;;;5053017;27;93010;-59
2021/01/12 02:54:02;;;;;;;1.02;0.93;;;;;;;;;;5032583;27;93601;-60
2021/01/12 02:56:27;;;;;;;0.88;0.88;;;;;;;;;;5038414;27;96301;-60
2021/01/12 02:58:53;;;;;;;0.80;0.80;;;;;;;;;;5053067;27;94007;-59
2021/01/12 03:01:19;;;;;;;0.70;0.70;;;;;;;;;;5050025;27;93005;-59
2021/01/12 03:03:44;;;;;;;0.77;0.77;;;;;;;;;;5052975;27;92266;-60
2021/01/12 03:06:09;;;;;;;0.70;0.70;;;;;;;;;;5053042;27;92308;-60
2021/01/12 03:08:35;;;;;;;0.80;0.80;;;;;;;;;;5051897;27;92936;-60
2021/01/12 03:11:00;;;;;;;0.80;0.80;;;;;;;;;;5053003;27;93433;-61
2021/01/12 03:13:25;;;;;;;1.20;1.10;;;;;;;;;;5059049;27;91723;-60
2021/01/12 03:15:51;;;;;;;0.80;0.80;;;;;;;;;;5054096;27;92489;-59
2021/01/12 03:18:16;;;;;;;0.85;0.85;;;;;;;;;;5050522;27;92719;-60
2021/01/12 03:20:41;;;;;;;1.10;1.00;;;;;;;;;;5034497;27;97025;-60
2021/01/12 03:23:06;;;;;;;1.40;1.20;;;;;;;;;;5052687;27;93847;-59
2021/01/12 03:25:32;;;;;;;0.90;0.90;;;;;;;;;;5055025;27;92937;-60
2021/01/12 03:27:57;;;;;;;0.70;0.70;;;;;;;;;;5053191;27;92346;-59
2021/01/12 03:30:23;;;;;;;0.88;0.80;;;;;;;;;;5053084;27;92451;-59
2021/01/12 03:32:48;;;;;;;0.95;0.80;;;;;;;;;;5053309;27;92667;-59
2021/01/12 03:35:14;;;;;;;1.65;1.50;;;;;;;;;;5049526;27;94328;-60
2021/01/12 03:37:39;;;;;;;1.13;1.00;;;;;;;;;;5056695;27;92815;-60
2021/01/12 03:40:05;;;;;;;2.33;1.88;;;;;;;;;;5035299;27;93093;-60
2021/01/12 03:42:30;;;;;;;1.20;1.10;;;;;;;;;;5055376;27;93180;-60
2021/01/12 03:44:55;;;;;;;1.80;1.42;;;;;;;;;;5053044;27;94850;-59
2021/01/12 03:47:21;;;;;;;0.80;0.80;;;;;;;;;;5055236;27;94995;-59
2021/01/12 03:49:46;;;;;;;0.70;0.70;;;;;;;;;;5057876;27;92994;-60
2021/01/12 03:52:11;;;;;;;0.73;0.73;;;;;;;;;;5055140;27;92576;-60
2021/01/12 03:54:37;;;;;;;0.77;0.77;;;;;;;;;;5058717;27;92534;-60
2021/01/12 03:57:02;;;;;;;1.30;0.90;;;;;;;;;;5055776;27;92742;-60
2021/01/12 03:59:27;;;;;;;1.13;1.00;;;;;;;;;;5038987;27;92963;-60
2021/01/12 04:01:53;;;;;;;0.90;0.80;;;;;;;;;;5056371;27;92713;-60
2021/01/12 04:04:19;;;;;;;1.45;1.27;;;;;;;;;;5057174;27;92875;-61
2021/01/12 04:06:44;;;;;;;0.77;0.75;;;;;;;;;;5040374;27;92751;-60
2021/01/12 04:09:09;;;;;;;0.60;0.60;;;;;;;;;;5050768;27;94937;-60
2021/01/12 04:11:36;;;;;;;0.80;0.80;;;;;;;;;;5061624;27;93868;-60
2021/01/12 04:14:01;;;;;;;1.10;1.00;;;;;;;;;;5057916;27;93147;-60
2021/01/12 04:16:27;;;;;;;0.70;0.70;;;;;;;;;;5052912;27;92905;-60
2021/01/12 04:18:52;;;;;;;0.50;0.50;;;;;;;;;;5052016;27;94010;-59
2021/01/12 04:21:17;;;;;;;0.60;0.60;;;;;;;;;;5054290;27;92821;-60
2021/01/12 04:23:42;;;;;;;0.60;0.60;;;;;;;;;;5056969;27;92591;-60
2021/01/12 04:26:08;;;;;;;0.50;0.50;;;;;;;;;;5055966;27;92728;-60
2021/01/12 04:28:33;;;;;;;0.50;0.50;;;;;;;;;;5053706;27;92360;-60
2021/01/12 04:30:58;;;;;;;0.60;0.60;;;;;;;;;;5040099;27;92718;-60
2021/01/12 04:33:24;;;;;;;0.60;0.60;;;;;;;;;;5052875;27;96414;-59
2021/01/12 04:35:49;;;;;;;0.60;0.60;;;;;;;;;;5055786;27;93847;-60
2021/01/12 04:38:14;;;;;;;0.60;0.60;;;;;;;;;;5054921;27;92421;-60
2021/01/12 04:40:39;;;;;;;0.70;0.70;;;;;;;;;;5053691;27;92698;-60
2021/01/12 04:43:05;;;;;;;0.57;0.57;;;;;;;;;;5054233;27;92370;-60
2021/01/12 04:45:30;;;;;;;0.70;0.70;;;;;;;;;;5059504;27;92369;-60
2021/01/12 04:47:55;;;;;;;0.60;0.60;;;;;;;;;;5055650;27;92939;-60
2021/01/12 04:50:21;;;;;;;0.60;0.60;;;;;;;;;;5055272;27;92725;-60
2021/01/12 04:52:47;;;;;;;1.02;0.80;;;;;;;;;;5054124;27;92472;-60
2021/01/12 04:55:12;;;;;;;0.65;0.63;;;;;;;;;;5048481;27;92245;-59
2021/01/12 04:57:38;;;;;;;0.60;0.60;;;;;;;;;;5052189;27;94750;-60
2021/01/12 05:00:10;;;;;;;0.70;0.70;;;;;;;;;;5052800;27;93900;-60
2021/01/12 05:02:36;;;;;;;0.60;0.60;;;;;;;;;;5055624;27;92560;-59
2021/01/12 05:05:01;;;;;;;0.52;0.52;;;;;;;;;;5037253;27;93185;-60
2021/01/12 05:07:26;;;;;;;0.60;0.60;;;;;;;;;;5054533;27;92974;-60
2021/01/12 05:09:52;;;;;;;0.70;0.70;;;;;;;;;;5055717;27;93746;-60
2021/01/12 05:12:17;;;;;;;0.63;0.63;;;;;;;;;;5054464;27;93536;-60
2021/01/12 05:14:42;;;;;;;1.02;0.90;;;;;;;;;;5055359;27;91425;-60
2021/01/12 05:17:07;;;;;;;0.70;0.70;;;;;;;;;;5057573;27;92936;-59
2021/01/12 05:19:33;;;;;;;0.60;0.60;;;;;;;;;;5055911;27;93611;-59
2021/01/12 05:22:02;;;;;;;0.63;0.63;;;;;;;;;;5052908;27;94600;-59
2021/01/12 05:24:27;;;;;;;0.73;0.73;;;;;;;;;;5044153;27;94217;-60
2021/01/12 05:27:03;;;;;;;0.60;0.60;;;;;;;;;;5054009;27;92847;-59
2021/01/12 05:29:29;;;;;;;0.60;0.60;;;;;;;;;;5048511;27;92364;-59
2021/01/12 05:31:55;;;;;;;0.50;0.50;;;;;;;;;;5052876;27;92391;-60
2021/01/12 05:34:20;;;;;;;0.50;0.50;;;;;;;;;;5035868;27;92400;-59
2021/01/12 05:36:49;;;;;;;0.60;0.60;;;;;;;;;;5052359;27;92318;-59
2021/01/12 05:39:18;;;;;;;0.52;0.52;;;;;;;;;;5053681;27;91472;-59
2021/01/12 05:41:44;;;;;;;0.65;0.60;;;;;;;;;;5054820;27;92974;-60
2021/01/12 05:44:16;;;;;;;0.50;0.50;;;;;;;;;;5051288;27;92464;-60
2021/01/12 05:46:42;;;;;;;0.52;0.52;;;;;;;;;;5051225;27;95441;-59
2021/01/12 05:49:08;;;;;;;0.60;0.60;;;;;;;;;;5054323;27;95138;-58
2021/01/12 05:51:33;;;;;;;0.50;0.50;;;;;;;;;;5052089;27;93065;-60
2021/01/12 05:54:03;;;;;;;0.50;0.50;;;;;;;;;;5052280;27;92504;-60
2021/01/12 05:56:29;;;;;;;0.68;0.68;;;;;;;;;;5048975;27;92450;-59
2021/01/12 05:58:55;;;;;;;0.60;0.60;;;;;;;;;;5034442;27;94339;-59
2021/01/12 06:01:36;;;;;;;0.60;0.60;;;;;;;;;;5053655;27;92341;-60
2021/01/12 06:04:02;;;;;;;0.50;0.50;;;;;;;;;;5057933;27;91543;-59
2021/01/12 06:06:27;;;;;;;0.60;0.60;;;;;;;;;;5051357;27;92898;-60
2021/01/12 06:08:52;;;;;;;0.60;0.60;;;;;;;;;;5053647;27;92343;-59
2021/01/12 06:11:18;;;;;;;0.68;0.57;;;;;;;;;;5051508;27;95321;-60
2021/01/12 06:13:45;;;;;;;0.60;0.60;;;;;;;;;;5053767;27;95246;-60
2021/01/12 06:16:13;;;;;;;0.50;0.50;;;;;;;;;;5052262;27;92903;-59
2021/01/12 06:18:40;;;;;;;0.50;0.50;;;;;;;;;;5052379;27;92676;-59
2021/01/12 06:21:14;;;;;;;1.02;0.60;;;;;;;;;;5052504;27;92361;-59
2021/01/12 06:23:39;;;;;;;0.60;0.60;;;;;;;;;;5036531;27;92492;-60
2021/01/12 06:26:05;;;;;;;0.57;0.50;;;;;;;;;;5053253;27;92404;-59
2021/01/12 06:28:30;;;;;;;0.60;0.60;;;;;;;;;;5053008;27;91863;-59
2021/01/12 06:30:55;;;;;;;0.60;0.60;;;;;;;;;;5055534;27;94529;-59
2021/01/12 06:33:21;;;;;;;0.50;0.50;;;;;;;;;;5053037;27;92452;-59
2021/01/12 06:35:47;;;;;;;0.90;0.90;;;;;;;;;;5050131;27;94798;-60
2021/01/12 06:38:12;;;;;;;0.70;0.70;;;;;;;;;;5050519;27;95232;-60
2021/01/12 06:40:38;;;;;;;0.75;0.60;;;;;;;;;;5051476;27;92350;-59
2021/01/12 06:43:03;;;;;;;0.63;0.63;;;;;;;;;;5053737;27;92546;-59
2021/01/12 06:45:28;;;;;;;0.70;0.70;;;;;;;;;;5050439;27;93061;-61
2021/01/12 06:47:54;;;;;;;0.90;0.90;;;;;;;;;;5050660;27;93039;-59
2021/01/12 06:50:19;;;;;;;0.80;0.80;;;;;;;;;;5055602;27;92422;-60
2021/01/12 06:52:48;;;;;;;0.60;0.60;;;;;;;;;;5053857;27;91782;-60
2021/01/12 06:55:14;;;;;;;0.80;0.80;;;;;;;;;;5052631;27;92387;-60
2021/01/12 06:57:46;;;;;;;2.03;1.70;;;;;;;;;;5054165;27;93772;-60
2021/01/12 07:00:11;;;;;;;1.63;1.15;;;;;;;;;;5041761;27;97073;-60
2021/01/12 07:02:37;;;;;;;1.20;1.10;;;;;;;;;;5052399;27;93848;-60
2021/01/12 07:05:05;;;;;;;0.73;0.73;;;;;;;;;;5052975;27;93035;-60
2021/01/12 07:07:30;;;;;;;0.60;0.60;;;;;;;;;;5051629;27;93018;-60
2021/01/12 07:09:59;;;;;;;0.70;0.70;;;;;;;;;;5051587;27;93385;-60
2021/01/12 07:12:25;;;;;;;0.90;0.80;;;;;;;;;;5048395;27;92725;-60
2021/01/12 07:14:57;;;;;;;0.60;0.60;;;;;;;;;;5054279;27;93272;-60
2021/01/12 07:17:41;;;;;;;1.13;0.70;;;;;;;;;;5040169;27;91640;-60
2021/01/12 07:20:08;;;;;;;0.82;0.70;;;;;;;;;;5055218;27;92274;-60
2021/01/12 07:22:33;;;;;;;0.75;0.73;;;;;;;;;;5054638;27;95014;-60
2021/01/12 07:24:59;;;;;;;0.50;0.50;;;;;;;;;;5051767;27;94628;-60
2021/01/12 07:27:24;;;;;;;0.60;0.60;;;;;;;;;;5044749;27;97896;-61
2021/01/12 07:29:50;;;;;;;0.75;0.75;;;;;;;;;;5055356;27;92332;-59
2021/01/12 07:32:33;;;;;;;0.50;0.50;;;;;;;;;;5055282;27;93009;-60
2021/01/12 07:35:00;;;;;;;0.75;0.63;;;;;;;;;;5052669;27;92275;-60
2021/01/12 07:37:26;;;;;;;0.68;0.68;;;;;;;;;;5055050;27;92312;-60
2021/01/12 07:39:51;;;;;;;0.60;0.60;;;;;;;;;;5055299;27;92495;-60
2021/01/12 07:42:16;;;;;;;0.70;0.70;;;;;;;;;;5036996;27;91646;-60
2021/01/12 07:44:41;;;;;;;0.82;0.52;;;;;;;;;;5057304;27;92427;-60
2021/01/12 07:47:07;;;;;;;0.70;0.70;;;;;;;;;;5051131;27;94001;-60
2021/01/12 07:49:32;;;;;;;0.50;0.50;;;;;;;;;;5051988;27;94840;-60
2021/01/12 07:51:57;;;;;;;0.60;0.60;;;;;;;;;;5053627;27;93874;-60
2021/01/12 07:54:23;;;;;;;0.60;0.60;;;;;;;;;;5050679;27;93034;-61
2021/01/12 07:56:50;;;;;;;1.95;1.20;;;;;;;;;;5024292;27;95395;-61
2021/01/12 07:59:15;;;;;;;0.80;0.80;;;;;;;;;;5038546;27;92348;-61
2021/01/12 08:01:41;;;;;;;0.80;0.80;;;;;;;;;;5059182;27;93085;-60
2021/01/12 08:04:06;;;;;;;0.70;0.70;;;;;;;;;;5018427;27;93957;-61
2021/01/12 08:06:41;;;;;;;0.70;0.70;;;;;;;;;;5055172;27;91848;-61
2021/01/12 08:09:06;;;;;;;0.77;0.70;;;;;;;;;;5055043;27;93018;-59
2021/01/12 08:11:32;;;;;;;0.70;0.70;;;;;;;;;;5056697;27;92278;-60
2021/01/12 08:14:06;;;;;;;0.82;0.70;;;;;;;;;;5037083;27;95328;-60
2021/01/12 08:16:32;;;;;;;1.20;0.80;;;;;;;;;;5036708;27;95142;-60
2021/01/12 08:18:57;;;;;;;0.70;0.70;;;;;;;;;;5033917;27;94415;-60
2021/01/12 08:21:23;;;;;;;1.00;0.90;;;;;;;;;;5058075;27;92708;-60
2021/01/12 08:23:48;;;;;;;0.73;0.73;;;;;;;;;;5063443;27;93266;-59
2021/01/12 08:26:13;;;;;;;0.60;0.60;;;;;;;;;;5059251;27;92529;-60
2021/01/12 08:28:39;;;;;;;0.90;0.80;;;;;;;;;;5060271;27;92770;-60
2021/01/12 08:31:04;;;;;;;0.63;0.63;;;;;;;;;;5061436;27;91793;-60
2021/01/12 08:33:31;;;;;;;0.70;0.70;;;;;;;;;;5055737;27;92944;-60
2021/01/12 08:36:01;;;;;;;0.60;0.60;;;;;;;;;;5041726;27;92798;-59
2021/01/12 08:38:31;;;;;;;0.60;0.60;;;;;;;;;;5056456;27;98065;-61
2021/01/12 08:40:56;;;;;;;0.60;0.60;;;;;;;;;;5059742;27;96519;-59
2021/01/12 08:43:28;;;;;;;0.80;0.80;;;;;;;;;;5034831;27;92844;-61
2021/01/12 08:45:55;;;;;;;1.65;1.25;;;;;;;;;;5057185;27;92450;-60
2021/01/12 08:48:20;;;;;;;1.77;1.40;;;;;;;;;;5036783;27;93141;-61
2021/01/12 08:50:46;;;;;;;1.45;0.90;;;;;;;;;;5062625;27;92682;-60
2021/01/12 08:53:15;;;;;;;0.60;0.60;;;;;;;;;;5042500;27;94061;-59
2021/01/12 08:55:40;;;;;;;0.73;0.73;;;;;;;;;;5059748;27;91685;-60
2021/01/12 08:58:08;;;;;;;0.85;0.77;;;;;;;;;;5050402;27;93092;-61
2021/01/12 09:00:35;;;;;;;0.75;0.70;;;;;;;;;;5041663;27;92473;-59
2021/01/12 09:03:00;;;;;;;0.82;0.68;;;;;;;;;;5054910;27;94768;-61
2021/01/12 09:05:25;;;;;;;0.60;0.60;;;;;;;;;;5057622;27;96978;-61
2021/01/12 09:08:04;;;;;;;0.60;0.60;;;;;;;;;;5061078;27;93461;-60
2021/01/12 09:10:29;;;;;;;0.80;0.73;;;;;;;;;;5055826;27;93010;-59
2021/01/12 09:12:55;;;;;;;0.60;0.60;;;;;;;;;;5059937;27;92595;-60
2021/01/12 09:15:24;;;;;;;1.25;1.00;;;;;;;;;;5059930;27;92328;-60
2021/01/12 09:17:50;;;;;;;0.95;0.80;;;;;;;;;;5061923;27;93228;-59
2021/01/12 09:20:23;;;;;;;0.80;0.80;;;;;;;;;;5052175;27;92995;-60
2021/01/12 09:22:48;;;;;;;1.00;0.90;;;;;;;;;;5059716;27;93216;-59
2021/01/12 09:25:13;;;;;;;1.00;1.00;;;;;;;;;;5057944;27;93065;-60
2021/01/12 09:27:38;;;;;;;1.70;1.60;;;;;;;;;;5050594;27;95318;-60
2021/01/12 09:30:04;;;;;;;1.60;1.50;;;;;;;;;;5058182;27;95032;-60
2021/01/12 09:32:32;;;;;;;0.88;0.88;;;;;;;;;;5059796;27;92886;-60
2021/01/12 09:34:58;;;;;;;1.30;1.20;;;;;;;;;;5061600;27;92340;-60
2021/01/12 09:37:23;;;;;;;1.00;0.95;;;;;;;;;;5060293;27;93162;-60
2021/01/12 09:39:55;;;;;;;1.17;0.90;;;;;;;;;;5046717;27;92582;-60
2021/01/12 09:42:21;;;;;;;0.80;0.80;;;;;;;;;;5054678;27;92889;-60
2021/01/12 09:44:46;;;;;;;1.23;0.90;;;;;;;;;;5051413;27;92527;-61
2021/01/12 09:47:12;;;;;;;1.10;1.02;;;;;;;;;;5048869;27;93046;-61
2021/01/12 09:49:37;;;;;;;0.93;0.85;;;;;;;;;;5061087;27;92566;-61
2021/01/12 09:52:02;;;;;;;0.90;0.90;;;;;;;;;;5057171;27;95471;-61
2021/01/12 09:54:28;;;;;;;0.90;0.90;;;;;;;;;;5060011;27;95023;-61
2021/01/12 09:56:53;;;;;;;1.30;1.20;;;;;;;;;;5041647;27;93063;-61
2021/01/12 09:59:18;;;;;;;1.40;1.30;;;;;;;;;;5060655;27;92289;-61
2021/01/12 10:01:44;;;;;;;1.20;1.10;;;;;;;;;;5061891;27;92985;-62
2021/01/12 10:04:09;;;;;;;1.33;1.10;;;;;;;;;;5059066;27;93121;-61
2021/01/12 10:06:34;;;;;;;1.30;1.20;;;;;;;;;;5060855;27;92460;-58
2021/01/12 10:09:00;;;;;;;1.40;1.30;;;;;;;;;;5059955;27;92149;-58
2021/01/12 10:11:28;;;;;;;1.15;1.10;;;;;;;;;;5059624;27;93091;-61
2021/01/12 10:13:53;;;;;;;0.90;0.90;;;;;;;;;;5059172;27;92320;-59
2021/01/12 10:16:22;;;;;;;1.13;1.00;;;;;;;;;;5053719;27;94728;-61
2021/01/12 10:18:47;;;;;;;0.88;0.88;;;;;;;;;;5059873;27;93864;-61
2021/01/12 10:21:14;;;;;;;0.77;0.77;;;;;;;;;;5053890;27;92537;-60
2021/01/12 10:23:39;;;;;;;1.17;1.08;;;;;;;;;;5059139;27;92390;-57
2021/01/12 10:26:05;;;;;;;0.80;0.80;;;;;;;;;;5050250;27;95553;-58
2021/01/12 10:28:30;;;;;;;0.70;0.70;;;;;;;;;;5059821;27;92677;-58
2021/01/12 10:30:55;;;;;;;0.93;0.70;;;;;;;;;;5061217;27;93024;-57
2021/01/12 10:33:21;;;;;;;1.30;0.98;;;;;;;;;;5059493;27;91711;-58
2021/01/12 10:35:46;;;;;;;0.80;0.80;;;;;;;;;;5061186;27;92929;-56
2021/01/12 10:38:12;;;;;;;0.80;0.80;;;;;;;;;;5057672;27;95386;-56
2021/01/12 10:40:37;;;;;;;0.80;0.80;;;;;;;;;;5058564;27;94738;-60
2021/01/12 10:43:02;;;;;;;1.70;0.90;;;;;;;;;;5051682;27;93717;-60
2021/01/12 10:45:28;;;;;;;0.80;0.80;;;;;;;;;;5058487;27;92614;-60
2021/01/12 10:47:53;;;;;;;0.95;0.80;;;;;;;;;;5057261;27;92498;-60
2021/01/12 10:50:19;;;;;;;1.10;1.00;;;;;;;;;;5059012;27;92375;-60
2021/01/12 10:52:44;;;;;;;0.80;0.80;;;;;;;;;;5061972;27;92380;-60
2021/01/12 10:55:10;;;;;;;0.80;0.80;;;;;;;;;;5057811;27;92368;-60
2021/01/12 10:57:35;;;;;;;0.80;0.80;;;;;;;;;;5061113;27;92589;-60
2021/01/12 11:00:01;;;;;;;0.95;0.95;;;;;;;;;;5058764;27;92302;-60
2021/01/12 11:02:30;;;;;;;0.98;0.98;;;;;;;;;;5046406;27;92649;-62
2021/01/12 11:04:56;;;;;;;1.20;1.10;;;;;;;;;;5053162;27;95455;-63
2021/01/12 11:07:21;;;;;;;1.13;1.10;;;;;;;;;;5048073;27;93635;-63
2021/01/12 11:09:47;;;;;;;1.23;1.13;;;;;;;;;;5045069;27;95606;-63
2021/01/12 11:12:12;;;;;;;1.02;0.95;;;;;;;;;;5055842;27;92321;-65
2021/01/12 11:14:38;;;;;;;1.13;0.95;;;;;;;;;;5060669;27;92274;-63
2021/01/12 11:17:03;;;;;;;1.05;0.80;;;;;;;;;;5059323;27;92363;-63
2021/01/12 11:19:28;;;;;;;0.80;0.80;;;;;;;;;;5058937;27;92538;-61
2021/01/12 11:21:54;;;;;;;0.70;0.70;;;;;;;;;;5061605;27;92058;-62
2021/01/12 11:24:20;;;;;;;1.00;0.90;;;;;;;;;;5055294;27;92748;-63
2021/01/12 11:26:46;;;;;;;1.10;0.98;;;;;;;;;;5059394;27;92461;-62
2021/01/12 11:29:11;;;;;;;0.80;0.80;;;;;;;;;;5053737;27;95663;-62
2021/01/12 11:31:37;;;;;;;0.95;0.90;;;;;;;;;;5057037;27;93801;-59
2021/01/12 11:34:02;;;;;;;0.80;0.80;;;;;;;;;;5059404;27;92724;-59
2021/01/12 11:36:35;;;;;;;0.93;0.90;;;;;;;;;;5057463;27;92342;-59
2021/01/12 11:39:00;;;;;;;1.17;0.98;;;;;;;;;;5026686;27;92347;-59
2021/01/12 11:41:26;;;;;;;1.63;1.20;;;;;;;;;;5057180;27;93015;-54
2021/01/12 11:43:51;;;;;;;1.30;1.20;;;;;;;;;;5060561;27;92671;-59
2021/01/12 11:46:17;;;;;;;2.75;1.10;;;;;;;;;;5057324;27;91592;-59
2021/01/12 11:48:42;;;;;;;1.83;1.10;;;;;;;;;;5056320;27;93583;-58
2021/01/12 11:51:07;;;;;;;1.48;1.10;;;;;;;;;;5057620;27;92313;-58
2021/01/12 11:53:33;;;;;;;1.40;1.30;;;;;;;;;;5048497;27;94838;-59
2021/01/12 11:55:59;;;;;;;1.30;1.10;;;;;;;;;;5061406;27;95121;-60
2021/01/12 11:58:24;;;;;;;1.40;1.13;;;;;;;;;;5063008;27;92452;-61
2021/01/12 12:00:49;;;;;;;1.27;1.17;;;;;;;;;;5064280;27;92495;-61
2021/01/12 12:03:14;;;;;;;1.92;1.33;;;;;;;;;;5061590;27;93061;-61
2021/01/12 12:05:40;;;;;;;1.48;1.30;;;;;;;;;;5061273;27;92392;-60
2021/01/12 12:08:05;;;;;;;1.65;1.13;;;;;;;;;;5061781;27;92254;-60
2021/01/12 12:10:30;;;;;;;0.95;0.95;;;;;;;;;;5039694;27;91744;-61
2021/01/12 12:12:56;;;;;;;1.70;1.10;;;;;;;;;;5061347;27;92505;-62
2021/01/12 12:15:21;;;;;;;1.30;1.20;;;;;;;;;;5062494;27;92821;-61
2021/01/12 12:17:47;;;;;;;1.88;1.10;;;;;;;;;;5054225;27;95450;-62
2021/01/12 12:20:14;;;;;;;2.00;1.40;;;;;;;;;;5061792;27;94907;-62
2021/01/12 12:22:39;;;;;;;1.52;1.30;;;;;;;;;;5063367;27;92368;-62
2021/01/12 12:25:05;;;;;;;2.08;1.27;;;;;;;;;;5056392;27;92302;-61
2021/01/12 12:27:30;;;;;;;1.40;1.30;;;;;;;;;;5061831;27;93137;-61
2021/01/12 12:29:56;;;;;;;1.70;1.33;;;;;;;;;;5062912;27;92979;-62
2021/01/12 12:32:22;;;;;;;1.70;1.48;;;;;;;;;;5060566;27;94045;-62
2021/01/12 12:34:48;;;;;;;1.60;1.45;;;;;;;;;;5063952;27;91742;-62
2021/01/12 12:37:13;;;;;;;1.85;1.50;;;;;;;;;;5061354;27;92346;-62
2021/01/12 12:39:39;;;;;;;2.47;1.70;;;;;;;;;;5063134;27;92397;-62
2021/01/12 12:42:04;;;;;;;1.92;1.63;;;;;;;;;;5054348;27;94735;-62
2021/01/12 12:44:31;;;;;;;1.83;1.63;;;;;;;;;;5062128;27;93887;-62
2021/01/12 12:46:57;;;;;;;2.33;1.67;;;;;;;;;;5050904;27;93098;-62
2021/01/12 12:49:22;;;;;;;2.83;1.80;;;;;;;;;;5058209;27;92366;-62
2021/01/12 12:51:48;;;;;;;2.55;1.38;;;;;;;;;;5062192;27;92851;-61
2021/01/12 12:54:14;;;;;;;2.53;1.40;;;;;;;;;;5057581;27;92580;-62
2021/01/12 12:56:39;;;;;;;2.30;1.42;;;;;;;;;;5062722;27;92811;-62
2021/01/12 12:59:04;;;;;;;3.03;1.50;;;;;;;;;;5061990;27;91582;-62
2021/01/12 13:01:30;;;;;;;3.30;1.30;;;;;;;;;;5057205;27;92896;-62
2021/01/12 13:03:55;;;;;;;3.47;1.42;;;;;;;;;;5062739;27;92133;-62
2021/01/12 13:06:23;;;;;;;1.95;1.13;;;;;;;;;;5056759;27;94713;-62
2021/01/12 13:08:49;;;;;;;1.58;1.05;;;;;;;;;;5061860;27;95120;-62
2021/01/12 13:11:14;;;;;;;1.55;1.05;;;;;;;;;;5060806;27;92932;-62
2021/01/12 13:13:40;;;;;;;1.88;1.10;;;;;;;;;;5062531;27;92615;-62
2021/01/12 13:16:05;;;;;;;1.70;1.17;;;;;;;;;;5059520;27;93871;-61
2021/01/12 13:18:38;;;;;;;2.40;1.30;;;;;;;;;;5057030;27;93826;-61
2021/01/12 13:21:03;;;;;;;2.00;1.40;;;;;;;;;;5061752;27;92564;-61
2021/01/12 13:23:29;;;;;;;2.85;1.50;;;;;;;;;;5061500;27;92675;-61
2021/01/12 13:25:54;;;;;;;4.38;1.48;;;;;;;;;;5062006;27;92425;-61
2021/01/12 13:28:21;;;;;;;3.33;1.50;;;;;;;;;;5056930;27;92383;-62
2021/01/12 13:30:47;;;;;;;2.47;1.33;;;;;;;;;;5059181;27;94849;-63
2021/01/12 13:33:13;;;;;;;2.05;1.20;;;;;;;;;;5056099;27;93861;-63
2021/01/12 13:35:38;;;;;;;2.00;1.30;;;;;;;;;;5057923;27;93009;-60
2021/01/12 13:38:03;;;;;;;1.75;1.25;;;;;;;;;;5057543;27;93101;-61
2021/01/12 13:40:29;;;;;;;2.10;1.10;;;;;;;;;;5055713;27;92277;-57
2021/01/12 13:42:58;;;;;;;11.02;6.03;;;;;;;;;;5059137;27;92745;-55
2021/01/12 13:50:46;;;;;;;13.73;7.28;;;;;;;;;;5041600;27;86909;-64
2021/01/12 13:53:12;;;;;;;13.75;7.22;;;;;;;;;;5035557;27;86812;-61
2021/01/12 13:55:37;;;;;;;15.52;7.28;;;;;;;;;;5036182;27;86945;-60
2021/01/12 13:58:06;;;;;;;13.10;7.00;;;;;;;;;;5037932;27;86428;-62
2021/01/12 14:00:32;;;;;;;12.18;6.93;;;;;;;;;;5037205;27;89037;-61
2021/01/12 14:02:58;;;;;;;11.93;6.53;;;;;;;;;;5037926;27;86472;-61
2021/01/12 14:05:44;;;;;;;10.30;6.50;;;;;;;;;;5028118;27;86561;-62
2021/01/12 14:08:09;;;;;;;11.27;6.07;;;;;;;;;;5035469;27;86464;-61
2021/01/12 14:10:34;;;;;;;10.68;6.25;;;;;;;;;;5036047;27;87189;-61
2021/01/12 14:13:00;;;;;;;11.43;6.63;;;;;;;;;;5036761;27;87173;-61
2021/01/12 14:15:25;;;;;;;0.93;0.80;;;;;;;;;;5034250;27;86487;-55
2021/01/12 14:28:27;;;;;;;2.08;0.80;;;;;;;;;;4989794;28;105151;-52
2021/01/12 14:30:52;;;;;;;1.30;0.70;;;;;;;;;;4978515;28;105564;-51
2021/01/12 14:33:17;;;;;;;2.10;0.82;;;;;;;;;;4966968;27;105369;-51
2021/01/12 14:35:43;;;;;;;3.47;0.80;;;;;;;;;;4942868;28;104882;-55
2021/01/12 14:38:14;;;;;;;1.63;0.70;;;;;;;;;;4942182;28;104882;-61
2021/01/12 14:45:09;;;;;;;1.65;0.80;;;;;;;;;;4992495;28;104842;-45
2021/01/12 14:49:27;;;;;;;0.85;0.82;;;;;;;;;;4988794;28;113942;-52
2021/01/12 14:51:52;;;;;;;2.43;1.10;;;;;;;;;;4966611;27;113917;-50
2021/01/12 14:55:06;;;;;;;3.85;1.50;;;;;;;;;;4983549;28;114182;-48
2021/01/12 14:57:33;;;;;;;4.65;2.15;;;;;;;;;;4964349;28;114020;-57
2021/01/12 14:59:58;;;;;;;4.22;1.75;;;;;;;;;;4961952;28;113980;-57